sensor_id;sensor_type;location;lat;lon;timestamp;P1;durP1;ratioP1;P2;durP2;ratioP2
38208;SDS011;24016;52.102;11.584;2022-10-30T00:00:25;21.55;;;13.60;;
38208;SDS011;24016;52.102;11.584;2022-10-30T00:02:51;23.80;;;14.15;;
38208;SDS011;24016;52.102;11.584;2022-10-30T00:05:17;22.40;;;14.13;;
38208;SDS011;24016;52.102;11.584;2022-10-30T00:07:44;24.80;;;12.95;;
38208;SDS011;24016;52.102;11.584;2022-10-30T00:10:11;22.33;;;12.65;;
38208;SDS011;24016;52.102;11.584;2022-10-30T00:12:36;23.00;;;13.38;;
38208;SDS011;24016;52.102;11.584;2022-10-30T00:15:02;22.63;;;13.05;;
38208;SDS011;24016;52.102;11.584;2022-10-30T00:17:29;22.63;;;13.50;;
38208;SDS011;24016;52.102;11.584;2022-10-30T00:19:54;17.38;;;12.15;;
38208;SDS011;24016;52.102;11.584;2022-10-30T00:22:20;20.90;;;13.27;;
38208;SDS011;24016;52.102;11.584;2022-10-30T00:24:45;17.95;;;12.02;;
38208;SDS011;24016;52.102;11.584;2022-10-30T00:27:11;20.45;;;12.48;;
38208;SDS011;24016;52.102;11.584;2022-10-30T00:29:37;25.25;;;13.52;;
38208;SDS011;24016;52.102;11.584;2022-10-30T00:32:02;21.13;;;13.23;;
38208;SDS011;24016;52.102;11.584;2022-10-30T00:34:28;22.55;;;13.20;;
38208;SDS011;24016;52.102;11.584;2022-10-30T00:36:54;20.52;;;12.73;;
38208;SDS011;24016;52.102;11.584;2022-10-30T00:39:19;19.67;;;11.77;;
38208;SDS011;24016;52.102;11.584;2022-10-30T00:41:45;23.02;;;12.25;;
38208;SDS011;24016;52.102;11.584;2022-10-30T00:52:45;20.75;;;11.90;;
38208;SDS011;24016;52.102;11.584;2022-10-30T00:55:16;17.42;;;11.15;;
38208;SDS011;24016;52.102;11.584;2022-10-30T00:57:45;26.30;;;13.07;;
38208;SDS011;24016;52.102;11.584;2022-10-30T01:00:11;18.65;;;12.80;;
38208;SDS011;24016;52.102;11.584;2022-10-30T01:02:38;22.58;;;12.35;;
38208;SDS011;24016;52.102;11.584;2022-10-30T01:05:06;21.58;;;12.05;;
38208;SDS011;24016;52.102;11.584;2022-10-30T01:07:32;18.25;;;12.25;;
38208;SDS011;24016;52.102;11.584;2022-10-30T01:09:58;22.30;;;11.88;;
38208;SDS011;24016;52.102;11.584;2022-10-30T01:12:24;20.17;;;12.98;;
38208;SDS011;24016;52.102;11.584;2022-10-30T01:14:51;22.27;;;12.48;;
38208;SDS011;24016;52.102;11.584;2022-10-30T01:17:27;21.20;;;12.00;;
38208;SDS011;24016;52.102;11.584;2022-10-30T01:20:25;17.02;;;12.05;;
38208;SDS011;24016;52.102;11.584;2022-10-30T01:23:19;17.83;;;11.48;;
38208;SDS011;24016;52.102;11.584;2022-10-30T01:28:41;20.83;;;11.65;;
38208;SDS011;24016;52.102;11.584;2022-10-30T01:31:34;17.83;;;9.93;;
38208;SDS011;24016;52.102;11.584;2022-10-30T01:37:21;21.47;;;11.47;;
38208;SDS011;24016;52.102;11.584;2022-10-30T01:39:52;24.30;;;10.20;;
38208;SDS011;24016;52.102;11.584;2022-10-30T01:45:15;12.73;;;9.65;;
38208;SDS011;24016;52.102;11.584;2022-10-30T01:50:54;18.10;;;10.18;;
38208;SDS011;24016;52.102;11.584;2022-10-30T02:01:41;18.27;;;9.93;;
38208;SDS011;24016;52.102;11.584;2022-10-30T02:04:08;19.38;;;10.75;;
38208;SDS011;24016;52.102;11.584;2022-10-30T02:06:36;18.00;;;9.52;;
38208;SDS011;24016;52.102;11.584;2022-10-30T02:09:03;21.95;;;10.90;;
38208;SDS011;24016;52.102;11.584;2022-10-30T02:11:29;13.65;;;9.38;;
38208;SDS011;24016;52.102;11.584;2022-10-30T02:13:56;16.60;;;10.23;;
38208;SDS011;24016;52.102;11.584;2022-10-30T02:16:24;20.02;;;9.55;;
38208;SDS011;24016;52.102;11.584;2022-10-30T02:18:50;17.13;;;9.70;;
38208;SDS011;24016;52.102;11.584;2022-10-30T02:21:16;19.35;;;8.73;;
38208;SDS011;24016;52.102;11.584;2022-10-30T02:23:42;18.75;;;10.60;;
38208;SDS011;24016;52.102;11.584;2022-10-30T02:26:08;20.48;;;9.98;;
38208;SDS011;24016;52.102;11.584;2022-10-30T02:28:33;14.30;;;8.70;;
38208;SDS011;24016;52.102;11.584;2022-10-30T02:33:34;22.02;;;10.07;;
38208;SDS011;24016;52.102;11.584;2022-10-30T02:36:00;23.00;;;8.90;;
38208;SDS011;24016;52.102;11.584;2022-10-30T02:38:26;15.68;;;8.57;;
38208;SDS011;24016;52.102;11.584;2022-10-30T02:40:51;12.25;;;8.15;;
38208;SDS011;24016;52.102;11.584;2022-10-30T02:43:17;14.02;;;9.07;;
38208;SDS011;24016;52.102;11.584;2022-10-30T02:45:42;16.02;;;8.32;;
38208;SDS011;24016;52.102;11.584;2022-10-30T02:48:08;14.32;;;8.25;;
38208;SDS011;24016;52.102;11.584;2022-10-30T02:50:34;18.77;;;8.32;;
38208;SDS011;24016;52.102;11.584;2022-10-30T02:52:59;15.13;;;8.30;;
38208;SDS011;24016;52.102;11.584;2022-10-30T02:55:25;19.08;;;8.70;;
38208;SDS011;24016;52.102;11.584;2022-10-30T02:57:50;17.38;;;9.07;;
38208;SDS011;24016;52.102;11.584;2022-10-30T03:00:16;15.10;;;9.05;;
38208;SDS011;24016;52.102;11.584;2022-10-30T03:02:42;16.02;;;8.35;;
38208;SDS011;24016;52.102;11.584;2022-10-30T03:05:07;14.18;;;9.27;;
38208;SDS011;24016;52.102;11.584;2022-10-30T03:07:33;15.90;;;8.45;;
38208;SDS011;24016;52.102;11.584;2022-10-30T03:09:58;15.43;;;9.00;;
38208;SDS011;24016;52.102;11.584;2022-10-30T03:12:24;18.42;;;8.38;;
38208;SDS011;24016;52.102;11.584;2022-10-30T03:14:50;16.10;;;8.77;;
38208;SDS011;24016;52.102;11.584;2022-10-30T03:17:15;15.55;;;8.25;;
38208;SDS011;24016;52.102;11.584;2022-10-30T03:19:41;16.10;;;8.55;;
38208;SDS011;24016;52.102;11.584;2022-10-30T03:22:07;17.48;;;9.77;;
38208;SDS011;24016;52.102;11.584;2022-10-30T03:24:32;13.88;;;9.02;;
38208;SDS011;24016;52.102;11.584;2022-10-30T03:26:58;15.52;;;8.70;;
38208;SDS011;24016;52.102;11.584;2022-10-30T03:29:23;22.35;;;9.23;;
38208;SDS011;24016;52.102;11.584;2022-10-30T03:31:49;23.55;;;9.45;;
38208;SDS011;24016;52.102;11.584;2022-10-30T03:34:15;17.45;;;9.35;;
38208;SDS011;24016;52.102;11.584;2022-10-30T03:36:40;20.23;;;9.35;;
38208;SDS011;24016;52.102;11.584;2022-10-30T03:39:06;12.68;;;8.65;;
38208;SDS011;24016;52.102;11.584;2022-10-30T03:41:32;14.75;;;8.90;;
38208;SDS011;24016;52.102;11.584;2022-10-30T03:43:57;13.70;;;8.57;;
38208;SDS011;24016;52.102;11.584;2022-10-30T03:46:23;17.75;;;9.77;;
38208;SDS011;24016;52.102;11.584;2022-10-30T03:48:48;17.98;;;9.45;;
38208;SDS011;24016;52.102;11.584;2022-10-30T03:51:14;13.80;;;9.00;;
38208;SDS011;24016;52.102;11.584;2022-10-30T03:53:40;17.13;;;9.48;;
38208;SDS011;24016;52.102;11.584;2022-10-30T03:56:05;17.85;;;8.93;;
38208;SDS011;24016;52.102;11.584;2022-10-30T03:58:31;13.63;;;9.15;;
38208;SDS011;24016;52.102;11.584;2022-10-30T04:01:01;16.55;;;9.02;;
38208;SDS011;24016;52.102;11.584;2022-10-30T04:03:28;16.75;;;9.27;;
38208;SDS011;24016;52.102;11.584;2022-10-30T04:05:53;18.23;;;10.07;;
38208;SDS011;24016;52.102;11.584;2022-10-30T04:08:19;16.45;;;9.32;;
38208;SDS011;24016;52.102;11.584;2022-10-30T04:10:45;17.77;;;9.52;;
38208;SDS011;24016;52.102;11.584;2022-10-30T04:13:12;15.18;;;9.25;;
38208;SDS011;24016;52.102;11.584;2022-10-30T04:15:40;19.60;;;9.32;;
38208;SDS011;24016;52.102;11.584;2022-10-30T04:18:06;18.63;;;9.73;;
38208;SDS011;24016;52.102;11.584;2022-10-30T04:20:34;18.95;;;10.35;;
38208;SDS011;24016;52.102;11.584;2022-10-30T04:23:00;19.50;;;9.98;;
38208;SDS011;24016;52.102;11.584;2022-10-30T04:25:27;14.68;;;9.32;;
38208;SDS011;24016;52.102;11.584;2022-10-30T04:27:54;19.52;;;9.82;;
38208;SDS011;24016;52.102;11.584;2022-10-30T04:30:20;16.98;;;10.32;;
38208;SDS011;24016;52.102;11.584;2022-10-30T04:32:48;17.95;;;9.43;;
38208;SDS011;24016;52.102;11.584;2022-10-30T04:35:18;19.80;;;10.43;;
38208;SDS011;24016;52.102;11.584;2022-10-30T04:38:07;20.83;;;10.68;;
38208;SDS011;24016;52.102;11.584;2022-10-30T04:40:34;15.35;;;9.88;;
38208;SDS011;24016;52.102;11.584;2022-10-30T04:43:02;17.88;;;10.27;;
38208;SDS011;24016;52.102;11.584;2022-10-30T04:45:28;13.43;;;9.23;;
38208;SDS011;24016;52.102;11.584;2022-10-30T04:48:27;17.63;;;9.75;;
38208;SDS011;24016;52.102;11.584;2022-10-30T04:53:12;17.48;;;9.70;;
38208;SDS011;24016;52.102;11.584;2022-10-30T04:55:39;19.23;;;10.00;;
38208;SDS011;24016;52.102;11.584;2022-10-30T04:58:05;13.27;;;9.25;;
38208;SDS011;24016;52.102;11.584;2022-10-30T05:00:32;14.88;;;9.68;;
38208;SDS011;24016;52.102;11.584;2022-10-30T05:03:00;18.52;;;10.25;;
38208;SDS011;24016;52.102;11.584;2022-10-30T05:05:29;17.33;;;9.98;;
38208;SDS011;24016;52.102;11.584;2022-10-30T05:07:55;16.05;;;9.98;;
38208;SDS011;24016;52.102;11.584;2022-10-30T05:10:20;15.65;;;9.93;;
38208;SDS011;24016;52.102;11.584;2022-10-30T05:12:46;22.40;;;10.65;;
38208;SDS011;24016;52.102;11.584;2022-10-30T05:15:12;16.35;;;10.23;;
38208;SDS011;24016;52.102;11.584;2022-10-30T05:17:38;16.50;;;9.80;;
38208;SDS011;24016;52.102;11.584;2022-10-30T05:20:04;18.95;;;9.52;;
38208;SDS011;24016;52.102;11.584;2022-10-30T05:22:30;14.07;;;9.45;;
38208;SDS011;24016;52.102;11.584;2022-10-30T05:24:56;14.05;;;10.02;;
38208;SDS011;24016;52.102;11.584;2022-10-30T05:27:21;19.00;;;10.32;;
38208;SDS011;24016;52.102;11.584;2022-10-30T05:29:47;13.55;;;9.25;;
38208;SDS011;24016;52.102;11.584;2022-10-30T05:32:13;17.50;;;10.35;;
38208;SDS011;24016;52.102;11.584;2022-10-30T05:34:38;15.80;;;10.23;;
38208;SDS011;24016;52.102;11.584;2022-10-30T05:37:04;13.60;;;10.88;;
38208;SDS011;24016;52.102;11.584;2022-10-30T05:39:30;13.98;;;10.15;;
38208;SDS011;24016;52.102;11.584;2022-10-30T05:41:56;15.48;;;9.70;;
38208;SDS011;24016;52.102;11.584;2022-10-30T05:44:21;17.17;;;9.27;;
38208;SDS011;24016;52.102;11.584;2022-10-30T05:46:47;16.00;;;9.57;;
38208;SDS011;24016;52.102;11.584;2022-10-30T05:49:12;15.48;;;9.18;;
38208;SDS011;24016;52.102;11.584;2022-10-30T05:51:38;14.30;;;8.50;;
38208;SDS011;24016;52.102;11.584;2022-10-30T05:54:04;14.95;;;9.15;;
38208;SDS011;24016;52.102;11.584;2022-10-30T05:56:29;15.43;;;10.48;;
38208;SDS011;24016;52.102;11.584;2022-10-30T05:58:55;16.75;;;10.90;;
38208;SDS011;24016;52.102;11.584;2022-10-30T06:01:21;17.17;;;10.20;;
38208;SDS011;24016;52.102;11.584;2022-10-30T06:03:46;18.05;;;9.82;;
38208;SDS011;24016;52.102;11.584;2022-10-30T06:06:12;13.18;;;9.23;;
38208;SDS011;24016;52.102;11.584;2022-10-30T06:08:38;13.75;;;9.05;;
38208;SDS011;24016;52.102;11.584;2022-10-30T06:11:03;16.67;;;9.63;;
38208;SDS011;24016;52.102;11.584;2022-10-30T06:13:29;15.85;;;9.50;;
38208;SDS011;24016;52.102;11.584;2022-10-30T06:15:54;16.33;;;9.10;;
38208;SDS011;24016;52.102;11.584;2022-10-30T06:18:20;20.20;;;9.27;;
38208;SDS011;24016;52.102;11.584;2022-10-30T06:20:46;19.35;;;9.68;;
38208;SDS011;24016;52.102;11.584;2022-10-30T06:23:12;12.55;;;9.70;;
38208;SDS011;24016;52.102;11.584;2022-10-30T06:25:38;16.50;;;10.23;;
38208;SDS011;24016;52.102;11.584;2022-10-30T06:28:04;19.05;;;10.45;;
38208;SDS011;24016;52.102;11.584;2022-10-30T06:30:30;20.70;;;10.57;;
38208;SDS011;24016;52.102;11.584;2022-10-30T06:32:56;17.52;;;10.82;;
38208;SDS011;24016;52.102;11.584;2022-10-30T06:35:25;14.43;;;9.80;;
38208;SDS011;24016;52.102;11.584;2022-10-30T06:37:52;17.02;;;10.30;;
38208;SDS011;24016;52.102;11.584;2022-10-30T06:40:19;18.40;;;10.23;;
38208;SDS011;24016;52.102;11.584;2022-10-30T06:42:45;18.90;;;11.38;;
38208;SDS011;24016;52.102;11.584;2022-10-30T06:45:12;18.27;;;11.65;;
38208;SDS011;24016;52.102;11.584;2022-10-30T06:47:39;19.70;;;11.30;;
38208;SDS011;24016;52.102;11.584;2022-10-30T06:50:06;20.58;;;12.07;;
38208;SDS011;24016;52.102;11.584;2022-10-30T06:52:33;18.83;;;11.10;;
38208;SDS011;24016;52.102;11.584;2022-10-30T06:54:59;19.55;;;12.07;;
38208;SDS011;24016;52.102;11.584;2022-10-30T06:57:25;16.67;;;10.48;;
38208;SDS011;24016;52.102;11.584;2022-10-30T06:59:50;16.90;;;11.10;;
38208;SDS011;24016;52.102;11.584;2022-10-30T07:02:16;23.73;;;12.27;;
38208;SDS011;24016;52.102;11.584;2022-10-30T07:04:42;21.08;;;12.85;;
38208;SDS011;24016;52.102;11.584;2022-10-30T07:07:09;23.23;;;12.25;;
38208;SDS011;24016;52.102;11.584;2022-10-30T07:09:35;22.65;;;12.05;;
38208;SDS011;24016;52.102;11.584;2022-10-30T07:12:00;22.05;;;12.68;;
38208;SDS011;24016;52.102;11.584;2022-10-30T07:14:26;18.95;;;11.52;;
38208;SDS011;24016;52.102;11.584;2022-10-30T07:16:53;23.45;;;11.65;;
38208;SDS011;24016;52.102;11.584;2022-10-30T07:19:19;17.08;;;11.00;;
38208;SDS011;24016;52.102;11.584;2022-10-30T07:21:45;19.80;;;10.68;;
38208;SDS011;24016;52.102;11.584;2022-10-30T07:24:11;13.45;;;9.65;;
38208;SDS011;24016;52.102;11.584;2022-10-30T07:26:36;17.60;;;10.00;;
38208;SDS011;24016;52.102;11.584;2022-10-30T07:29:03;15.77;;;9.63;;
38208;SDS011;24016;52.102;11.584;2022-10-30T07:31:29;16.98;;;10.13;;
38208;SDS011;24016;52.102;11.584;2022-10-30T07:33:55;15.48;;;9.20;;
38208;SDS011;24016;52.102;11.584;2022-10-30T07:36:21;18.67;;;9.20;;
38208;SDS011;24016;52.102;11.584;2022-10-30T07:38:47;16.63;;;10.25;;
38208;SDS011;24016;52.102;11.584;2022-10-30T07:41:16;16.15;;;9.98;;
38208;SDS011;24016;52.102;11.584;2022-10-30T07:43:43;16.75;;;9.30;;
38208;SDS011;24016;52.102;11.584;2022-10-30T07:46:10;15.52;;;9.02;;
38208;SDS011;24016;52.102;11.584;2022-10-30T07:48:35;15.88;;;8.85;;
38208;SDS011;24016;52.102;11.584;2022-10-30T07:51:01;15.80;;;8.70;;
38208;SDS011;24016;52.102;11.584;2022-10-30T07:53:27;19.33;;;8.57;;
38208;SDS011;24016;52.102;11.584;2022-10-30T07:55:53;13.65;;;8.60;;
38208;SDS011;24016;52.102;11.584;2022-10-30T07:58:19;12.70;;;7.97;;
38208;SDS011;24016;52.102;11.584;2022-10-30T08:00:45;16.92;;;7.82;;
38208;SDS011;24016;52.102;11.584;2022-10-30T08:03:11;11.25;;;7.30;;
38208;SDS011;24016;52.102;11.584;2022-10-30T08:05:37;15.75;;;7.10;;
38208;SDS011;24016;52.102;11.584;2022-10-30T08:08:03;13.65;;;7.53;;
38208;SDS011;24016;52.102;11.584;2022-10-30T08:10:29;11.80;;;6.18;;
38208;SDS011;24016;52.102;11.584;2022-10-30T08:12:54;12.07;;;6.78;;
38208;SDS011;24016;52.102;11.584;2022-10-30T08:15:20;14.07;;;7.07;;
38208;SDS011;24016;52.102;11.584;2022-10-30T08:17:46;11.85;;;5.97;;
38208;SDS011;24016;52.102;11.584;2022-10-30T08:20:13;12.60;;;5.88;;
38208;SDS011;24016;52.102;11.584;2022-10-30T08:22:48;9.02;;;5.15;;
38208;SDS011;24016;52.102;11.584;2022-10-30T08:25:21;14.02;;;5.88;;
38208;SDS011;24016;52.102;11.584;2022-10-30T08:27:52;14.53;;;5.80;;
38208;SDS011;24016;52.102;11.584;2022-10-30T08:30:20;13.10;;;5.22;;
38208;SDS011;24016;52.102;11.584;2022-10-30T08:32:47;12.68;;;5.47;;
38208;SDS011;24016;52.102;11.584;2022-10-30T08:35:13;10.75;;;4.88;;
38208;SDS011;24016;52.102;11.584;2022-10-30T08:37:40;12.77;;;4.90;;
38208;SDS011;24016;52.102;11.584;2022-10-30T08:40:06;10.80;;;5.13;;
38208;SDS011;24016;52.102;11.584;2022-10-30T08:42:32;11.13;;;4.90;;
38208;SDS011;24016;52.102;11.584;2022-10-30T08:44:58;12.20;;;4.63;;
38208;SDS011;24016;52.102;11.584;2022-10-30T08:47:23;13.07;;;5.32;;
38208;SDS011;24016;52.102;11.584;2022-10-30T08:49:49;8.88;;;4.60;;
38208;SDS011;24016;52.102;11.584;2022-10-30T08:52:14;13.15;;;5.00;;
38208;SDS011;24016;52.102;11.584;2022-10-30T08:54:40;12.70;;;4.90;;
38208;SDS011;24016;52.102;11.584;2022-10-30T08:57:05;12.55;;;4.45;;
38208;SDS011;24016;52.102;11.584;2022-10-30T08:59:31;8.95;;;4.63;;
38208;SDS011;24016;52.102;11.584;2022-10-30T09:01:57;10.90;;;4.00;;
38208;SDS011;24016;52.102;11.584;2022-10-30T09:04:22;12.13;;;4.13;;
38208;SDS011;24016;52.102;11.584;2022-10-30T09:06:48;13.80;;;4.30;;
38208;SDS011;24016;52.102;11.584;2022-10-30T09:09:14;10.32;;;4.13;;
38208;SDS011;24016;52.102;11.584;2022-10-30T09:11:40;13.50;;;4.03;;
38208;SDS011;24016;52.102;11.584;2022-10-30T09:14:05;9.77;;;4.38;;
38208;SDS011;24016;52.102;11.584;2022-10-30T09:16:31;13.20;;;4.10;;
38208;SDS011;24016;52.102;11.584;2022-10-30T09:18:57;11.05;;;4.28;;
38208;SDS011;24016;52.102;11.584;2022-10-30T09:21:22;11.52;;;4.13;;
38208;SDS011;24016;52.102;11.584;2022-10-30T09:23:48;13.63;;;4.00;;
38208;SDS011;24016;52.102;11.584;2022-10-30T09:26:14;7.35;;;3.58;;
38208;SDS011;24016;52.102;11.584;2022-10-30T09:28:39;11.80;;;4.03;;
38208;SDS011;24016;52.102;11.584;2022-10-30T09:31:05;10.02;;;3.63;;
38208;SDS011;24016;52.102;11.584;2022-10-30T09:33:30;12.10;;;4.05;;
38208;SDS011;24016;52.102;11.584;2022-10-30T09:35:56;10.77;;;3.78;;
38208;SDS011;24016;52.102;11.584;2022-10-30T09:38:22;11.20;;;3.65;;
38208;SDS011;24016;52.102;11.584;2022-10-30T09:41:12;8.43;;;3.63;;
38208;SDS011;24016;52.102;11.584;2022-10-30T09:49:31;8.85;;;3.30;;
38208;SDS011;24016;52.102;11.584;2022-10-30T09:55:03;13.48;;;4.15;;
38208;SDS011;24016;52.102;11.584;2022-10-30T09:57:33;11.27;;;3.78;;
38208;SDS011;24016;52.102;11.584;2022-10-30T10:02:45;10.00;;;3.40;;
38208;SDS011;24016;52.102;11.584;2022-10-30T10:05:25;10.50;;;3.85;;
38208;SDS011;24016;52.102;11.584;2022-10-30T10:08:00;13.10;;;4.05;;
38208;SDS011;24016;52.102;11.584;2022-10-30T10:10:34;10.07;;;3.97;;
38208;SDS011;24016;52.102;11.584;2022-10-30T10:15:54;6.75;;;3.83;;
38208;SDS011;24016;52.102;11.584;2022-10-30T10:18:35;14.63;;;4.20;;
38208;SDS011;24016;52.102;11.584;2022-10-30T10:21:24;10.93;;;3.38;;
38208;SDS011;24016;52.102;11.584;2022-10-30T10:23:53;10.93;;;3.88;;
38208;SDS011;24016;52.102;11.584;2022-10-30T10:26:28;12.10;;;4.07;;
38208;SDS011;24016;52.102;11.584;2022-10-30T10:31:53;10.43;;;3.58;;
38208;SDS011;24016;52.102;11.584;2022-10-30T10:34:42;12.18;;;3.90;;
38208;SDS011;24016;52.102;11.584;2022-10-30T10:42:32;12.43;;;3.72;;
38208;SDS011;24016;52.102;11.584;2022-10-30T10:50:28;11.52;;;3.85;;
38208;SDS011;24016;52.102;11.584;2022-10-30T10:53:09;12.48;;;4.03;;
38208;SDS011;24016;52.102;11.584;2022-10-30T10:55:45;12.82;;;3.72;;
38208;SDS011;24016;52.102;11.584;2022-10-30T10:58:28;11.63;;;3.60;;
38208;SDS011;24016;52.102;11.584;2022-10-30T11:00:57;13.50;;;3.45;;
38208;SDS011;24016;52.102;11.584;2022-10-30T11:03:26;16.60;;;3.83;;
38208;SDS011;24016;52.102;11.584;2022-10-30T11:06:04;6.95;;;2.85;;
38208;SDS011;24016;52.102;11.584;2022-10-30T11:08:44;14.27;;;3.97;;
38208;SDS011;24016;52.102;11.584;2022-10-30T11:11:09;14.32;;;3.65;;
38208;SDS011;24016;52.102;11.584;2022-10-30T11:13:36;13.70;;;3.70;;
38208;SDS011;24016;52.102;11.584;2022-10-30T11:16:48;10.07;;;3.30;;
38208;SDS011;24016;52.102;11.584;2022-10-30T11:19:13;9.10;;;3.65;;
38208;SDS011;24016;52.102;11.584;2022-10-30T11:21:41;14.70;;;3.47;;
38208;SDS011;24016;52.102;11.584;2022-10-30T11:26:51;13.10;;;3.70;;
38208;SDS011;24016;52.102;11.584;2022-10-30T11:29:21;14.05;;;3.60;;
38208;SDS011;24016;52.102;11.584;2022-10-30T11:32:01;10.25;;;3.90;;
38208;SDS011;24016;52.102;11.584;2022-10-30T11:36:58;11.07;;;3.80;;
38208;SDS011;24016;52.102;11.584;2022-10-30T11:39:25;13.82;;;3.78;;
38208;SDS011;24016;52.102;11.584;2022-10-30T11:44:42;9.20;;;3.45;;
38208;SDS011;24016;52.102;11.584;2022-10-30T11:47:21;9.98;;;3.35;;
38208;SDS011;24016;52.102;11.584;2022-10-30T11:49:57;11.32;;;3.50;;
38208;SDS011;24016;52.102;11.584;2022-10-30T11:52:25;9.63;;;3.83;;
38208;SDS011;24016;52.102;11.584;2022-10-30T11:54:55;11.85;;;3.67;;
38208;SDS011;24016;52.102;11.584;2022-10-30T11:57:49;16.45;;;4.00;;
38208;SDS011;24016;52.102;11.584;2022-10-30T12:00:19;11.02;;;3.63;;
38208;SDS011;24016;52.102;11.584;2022-10-30T12:02:48;10.68;;;4.07;;
38208;SDS011;24016;52.102;11.584;2022-10-30T12:05:36;12.02;;;3.78;;
38208;SDS011;24016;52.102;11.584;2022-10-30T12:10:31;10.73;;;3.33;;
38208;SDS011;24016;52.102;11.584;2022-10-30T12:13:04;12.18;;;3.58;;
38208;SDS011;24016;52.102;11.584;2022-10-30T12:15:34;10.18;;;4.00;;
38208;SDS011;24016;52.102;11.584;2022-10-30T12:18:03;11.45;;;3.40;;
38208;SDS011;24016;52.102;11.584;2022-10-30T12:20:30;14.52;;;3.97;;
38208;SDS011;24016;52.102;11.584;2022-10-30T12:23:09;9.48;;;3.55;;
38208;SDS011;24016;52.102;11.584;2022-10-30T12:25:39;10.68;;;3.92;;
38208;SDS011;24016;52.102;11.584;2022-10-30T12:28:12;9.43;;;3.42;;
38208;SDS011;24016;52.102;11.584;2022-10-30T12:30:51;15.73;;;3.63;;
38208;SDS011;24016;52.102;11.584;2022-10-30T12:33:22;14.57;;;3.65;;
38208;SDS011;24016;52.102;11.584;2022-10-30T12:35:54;10.05;;;3.50;;
38208;SDS011;24016;52.102;11.584;2022-10-30T12:38:29;11.15;;;3.30;;
38208;SDS011;24016;52.102;11.584;2022-10-30T12:43:37;10.00;;;3.50;;
38208;SDS011;24016;52.102;11.584;2022-10-30T12:48:55;10.68;;;3.53;;
38208;SDS011;24016;52.102;11.584;2022-10-30T12:54:29;9.70;;;3.20;;
38208;SDS011;24016;52.102;11.584;2022-10-30T12:57:07;11.23;;;3.35;;
38208;SDS011;24016;52.102;11.584;2022-10-30T13:02:21;12.30;;;3.47;;
38208;SDS011;24016;52.102;11.584;2022-10-30T13:04:56;13.23;;;3.47;;
38208;SDS011;24016;52.102;11.584;2022-10-30T13:07:28;12.32;;;3.60;;
38208;SDS011;24016;52.102;11.584;2022-10-30T13:10:02;10.35;;;3.58;;
38208;SDS011;24016;52.102;11.584;2022-10-30T13:12:40;7.82;;;3.30;;
38208;SDS011;24016;52.102;11.584;2022-10-30T13:15:17;12.45;;;3.90;;
38208;SDS011;24016;52.102;11.584;2022-10-30T13:17:48;10.88;;;3.90;;
38208;SDS011;24016;52.102;11.584;2022-10-30T13:20:15;13.02;;;3.85;;
38208;SDS011;24016;52.102;11.584;2022-10-30T13:22:51;10.77;;;3.88;;
38208;SDS011;24016;52.102;11.584;2022-10-30T13:25:30;12.32;;;3.63;;
38208;SDS011;24016;52.102;11.584;2022-10-30T13:28:12;9.75;;;3.33;;
38208;SDS011;24016;52.102;11.584;2022-10-30T13:33:41;7.97;;;3.35;;
38208;SDS011;24016;52.102;11.584;2022-10-30T13:36:14;12.98;;;3.60;;
38208;SDS011;24016;52.102;11.584;2022-10-30T13:38:56;10.32;;;3.55;;
38208;SDS011;24016;52.102;11.584;2022-10-30T13:41:53;9.35;;;3.63;;
38208;SDS011;24016;52.102;11.584;2022-10-30T13:47:53;8.23;;;3.45;;
38208;SDS011;24016;52.102;11.584;2022-10-30T13:50:46;10.52;;;3.17;;
38208;SDS011;24016;52.102;11.584;2022-10-30T13:53:29;10.40;;;3.28;;
38208;SDS011;24016;52.102;11.584;2022-10-30T13:56:00;12.13;;;3.42;;
38208;SDS011;24016;52.102;11.584;2022-10-30T13:58:34;16.13;;;4.53;;
38208;SDS011;24016;52.102;11.584;2022-10-30T14:01:20;13.48;;;4.00;;
38208;SDS011;24016;52.102;11.584;2022-10-30T14:03:58;13.15;;;3.85;;
38208;SDS011;24016;52.102;11.584;2022-10-30T14:09:55;9.73;;;3.63;;
38208;SDS011;24016;52.102;11.584;2022-10-30T14:15:14;7.85;;;3.30;;
38208;SDS011;24016;52.102;11.584;2022-10-30T14:20:38;11.77;;;3.50;;
38208;SDS011;24016;52.102;11.584;2022-10-30T14:23:15;9.82;;;3.17;;
38208;SDS011;24016;52.102;11.584;2022-10-30T14:26:10;12.63;;;3.65;;
38208;SDS011;24016;52.102;11.584;2022-10-30T14:28:46;12.82;;;3.67;;
38208;SDS011;24016;52.102;11.584;2022-10-30T14:31:15;8.43;;;3.50;;
38208;SDS011;24016;52.102;11.584;2022-10-30T14:33:52;10.73;;;3.60;;
38208;SDS011;24016;52.102;11.584;2022-10-30T14:36:20;14.93;;;3.67;;
38208;SDS011;24016;52.102;11.584;2022-10-30T14:38:52;11.80;;;3.42;;
38208;SDS011;24016;52.102;11.584;2022-10-30T14:41:52;12.07;;;5.43;;
38208;SDS011;24016;52.102;11.584;2022-10-30T14:44:45;11.13;;;4.40;;
38208;SDS011;24016;52.102;11.584;2022-10-30T14:58:23;9.40;;;4.80;;
38208;SDS011;24016;52.102;11.584;2022-10-30T15:06:36;18.80;;;4.80;;
38208;SDS011;24016;52.102;11.584;2022-10-30T15:09:40;17.02;;;4.97;;
38208;SDS011;24016;52.102;11.584;2022-10-30T15:15:11;13.07;;;5.15;;
38208;SDS011;24016;52.102;11.584;2022-10-30T15:17:40;16.70;;;4.72;;
38208;SDS011;24016;52.102;11.584;2022-10-30T15:20:13;10.32;;;4.72;;
38208;SDS011;24016;52.102;11.584;2022-10-30T15:22:45;9.57;;;4.82;;
38208;SDS011;24016;52.102;11.584;2022-10-30T15:25:17;14.13;;;4.75;;
38208;SDS011;24016;52.102;11.584;2022-10-30T15:27:45;13.10;;;5.40;;
38208;SDS011;24016;52.102;11.584;2022-10-30T15:30:21;15.52;;;4.70;;
38208;SDS011;24016;52.102;11.584;2022-10-30T15:32:48;12.20;;;4.93;;
38208;SDS011;24016;52.102;11.584;2022-10-30T15:35:18;15.25;;;5.00;;
38208;SDS011;24016;52.102;11.584;2022-10-30T15:37:55;16.17;;;4.70;;
38208;SDS011;24016;52.102;11.584;2022-10-30T15:40:22;12.15;;;4.78;;
38208;SDS011;24016;52.102;11.584;2022-10-30T15:42:48;13.20;;;4.82;;
38208;SDS011;24016;52.102;11.584;2022-10-30T15:45:19;10.95;;;4.97;;
38208;SDS011;24016;52.102;11.584;2022-10-30T15:47:48;16.52;;;5.05;;
38208;SDS011;24016;52.102;11.584;2022-10-30T15:50:21;11.82;;;4.63;;
38208;SDS011;24016;52.102;11.584;2022-10-30T15:52:47;13.52;;;4.72;;
38208;SDS011;24016;52.102;11.584;2022-10-30T15:55:15;13.88;;;5.22;;
38208;SDS011;24016;52.102;11.584;2022-10-30T15:57:46;11.80;;;5.60;;
38208;SDS011;24016;52.102;11.584;2022-10-30T16:00:22;13.73;;;5.95;;
38208;SDS011;24016;52.102;11.584;2022-10-30T16:03:00;15.95;;;5.93;;
38208;SDS011;24016;52.102;11.584;2022-10-30T16:05:31;11.95;;;5.65;;
38208;SDS011;24016;52.102;11.584;2022-10-30T16:07:58;14.65;;;5.80;;
38208;SDS011;24016;52.102;11.584;2022-10-30T16:10:26;13.40;;;5.80;;
38208;SDS011;24016;52.102;11.584;2022-10-30T16:12:57;16.50;;;6.27;;
38208;SDS011;24016;52.102;11.584;2022-10-30T16:20:53;11.73;;;6.72;;
38208;SDS011;24016;52.102;11.584;2022-10-30T16:23:29;12.80;;;6.32;;
38208;SDS011;24016;52.102;11.584;2022-10-30T16:26:02;10.80;;;6.50;;
38208;SDS011;24016;52.102;11.584;2022-10-30T16:28:32;15.73;;;6.35;;
38208;SDS011;24016;52.102;11.584;2022-10-30T16:31:00;15.35;;;6.45;;
38208;SDS011;24016;52.102;11.584;2022-10-30T16:33:29;9.70;;;6.00;;
38208;SDS011;24016;52.102;11.584;2022-10-30T16:35:57;14.20;;;7.38;;